メインページ
METAR-TAF:

METAR-TAF

空港 :

ウィーン国際空港

ウィーン, オーストリア

緯度: 48-07N, 経度: 016-34E, 海抜: 183m

現時点の気象観測

当レポートは33分前の10:20(UTC)に作成
の風 6kt、北東から南東の間で変化する
気温 21°C
湿度 46%
気圧 1019 hPa
視程10km以上
高度5000ftの雲はほとんどない
高度5000ftの雲はほとんどない, 積乱雲.

METAR: LOWW 211020Z 09006KT 040V140 9999 FEW050 FEW050CB 21/09 Q1019 NOSIG

時間: 12:53 (10:53 UTC)

予報

当レポートは2時間38分前の08:15(UTC)に作成
予報は21日の 09時(UTC)から 22日の 15時(UTC)まで有効
の風 5kt
視程10km以上
1,500メートル以下は雲なし、積乱雲なし
21日の 10時(UTC)から 21日の 17時(UTC)まで一時的に
南東の風 10kt
視程10km以上
高度5000ftの雲はほとんどない
高度5000ftの雲はほとんどない, 積乱雲.
22日の 04時(UTC)から 22日の 07時(UTC)まで一時的に
視程: 8000m
高度1200ftの雲は散在している
22日の 07時(UTC)から 22日の 09時(UTC)まで徐々に
南東の風 12kt
視程10km以上
高度5000ftの雲はほとんどない
22日の 11時(UTC)から 22日の 13時(UTC)まで徐々に
南東の風 15kt
高度5000ftの雲はほとんどない
高度5000ftの雲はほとんどない, 積乱雲.

TAF: LOWW 210815Z 2109/2215 10005KT CAVOK TX23/2212Z TN13/2202Z TEMPO 2110/2117 14010KT 9999 FEW050 FEW050CB TEMPO 2204/2207 8000 SCT012 BECMG 2207/2209 14012KT 9999 FEW050 BECMG 2211/2213 14015KT FEW050 FEW050CB

4,000以上の空港の気象観測と天気予報(METAR報とTAF報)

利用可能な観測所は地図上に黄色い丸と赤い丸で示す。

丸の上にカーソルを重ねると観測所名を参照できる。

次にクリックすると気象観測と天気予報を参照できる。

マップの切り替え:黒色「×」印の緑ボタンをクリックして拡大、「-」印の緑ボタンをクリックして縮小、緑色の三角印をクリックして隣りの地図に切り替え


METAR-TAF: